Albemarle, North Carolina
Current Conditions -  °F | °C
As of 1:55 AM on Saturday 01 Nov 2014 (Local Time) from KVUJ Reporting Station
Moderate Rain Moderate Rain  
Wind Chill: 43°   Ceiling: 1100
Heat Index: 47°   Visibility: 10mi
Dew Point: 47°   Wind: 8mph
Humidity: 100%   Direction: 360°N
Pressure: 29.78"   Gusts: NA
Location:  35.35°N, 80.19°W
Report Text: KVUJ 010555Z AUTO 36007KT 10SM RA OVC011 08/08 A2978 RMK AO2 P0006 60046 T00810081 10114 20079
Loading
Personal Weather Stations






























Interactive Weather Map
Tropical Storm Tracking
New forecast layout! Learn more

10-Day Weather Forecast

Advertisements
Track Severe Weather on mobile